createdAt,value
2017-08-15T00:00:05.895Z,22.63
2017-08-15T00:00:32.062Z,22.62
2017-08-15T00:00:58.240Z,22.63
2017-08-15T00:01:24.434Z,22.73
2017-08-15T00:01:50.617Z,22.7
2017-08-15T00:02:16.767Z,22.69
2017-08-15T00:02:42.957Z,22.7
2017-08-15T00:03:09.111Z,22.69
2017-08-15T00:03:35.306Z,22.76
2017-08-15T00:04:01.476Z,22.65
2017-08-15T00:04:27.598Z,22.73
2017-08-15T00:04:53.767Z,22.68
2017-08-15T00:05:19.990Z,22.78
2017-08-15T00:05:46.144Z,22.68
2017-08-15T00:06:12.257Z,22.75
2017-08-15T00:06:38.412Z,22.75
2017-08-15T00:07:04.527Z,22.73
2017-08-15T00:07:30.724Z,22.7
2017-08-15T00:07:56.846Z,22.73
2017-08-15T00:08:23.014Z,22.75
2017-08-15T00:08:49.243Z,22.7
2017-08-15T00:09:15.364Z,22.83
2017-08-15T00:09:41.508Z,22.73
2017-08-15T00:10:07.732Z,22.7
2017-08-15T00:10:33.898Z,22.7
2017-08-15T00:11:00.067Z,22.69
2017-08-15T00:11:26.281Z,22.66
2017-08-15T00:11:52.389Z,22.66
2017-08-15T00:12:18.527Z,22.66
2017-08-15T00:12:44.680Z,22.73
2017-08-15T00:13:10.838Z,22.63
2017-08-15T00:13:36.955Z,22.65
2017-08-15T00:14:03.098Z,22.72
2017-08-15T00:14:29.263Z,22.72
2017-08-15T00:14:55.453Z,22.68
2017-08-15T00:15:21.562Z,22.68
2017-08-15T00:15:47.702Z,22.69
2017-08-15T00:16:13.821Z,22.66
2017-08-15T00:16:39.939Z,22.7
2017-08-15T00:17:06.065Z,22.72
2017-08-15T00:17:32.233Z,22.7
2017-08-15T00:17:58.410Z,22.66
2017-08-15T00:18:24.533Z,22.7
2017-08-15T00:18:50.683Z,22.62
2017-08-15T00:19:16.844Z,22.62
2017-08-15T00:19:42.968Z,22.6
2017-08-15T00:20:09.139Z,22.57
2017-08-15T00:20:35.266Z,22.57
2017-08-15T00:21:01.404Z,22.57
2017-08-15T00:21:27.551Z,22.6
2017-08-15T00:21:53.733Z,22.65
2017-08-15T00:22:19.961Z,22.63
2017-08-15T00:22:46.105Z,22.63
2017-08-15T00:23:12.282Z,22.59
2017-08-15T00:23:38.432Z,22.51
2017-08-15T00:24:04.654Z,22.53
2017-08-15T00:24:30.814Z,22.53
2017-08-15T00:24:56.960Z,22.59
2017-08-15T00:25:23.135Z,22.54
2017-08-15T00:25:49.264Z,22.62
2017-08-15T00:26:15.409Z,22.55
2017-08-15T00:26:41.623Z,22.48
2017-08-15T00:27:07.819Z,22.51
2017-08-15T00:27:33.996Z,22.5
2017-08-15T00:28:00.176Z,22.53
2017-08-15T00:28:26.376Z,22.45
2017-08-15T00:28:52.528Z,22.44
2017-08-15T00:29:18.808Z,22.38
2017-08-15T00:29:44.925Z,22.38
2017-08-15T00:30:11.071Z,22.41
2017-08-15T00:30:37.236Z,22.45
2017-08-15T00:31:03.417Z,22.33
2017-08-15T00:31:29.617Z,22.33
2017-08-15T00:31:55.816Z,22.29
2017-08-15T00:32:22.001Z,22.41
2017-08-15T00:32:48.147Z,22.38
2017-08-15T00:33:14.311Z,22.35
2017-08-15T00:33:40.467Z,22.36
2017-08-15T00:34:06.617Z,22.39
2017-08-15T00:34:32.741Z,22.5
2017-08-15T00:34:58.913Z,22.51
2017-08-15T00:35:25.075Z,22.47
2017-08-15T00:35:51.228Z,22.48
2017-08-15T00:36:17.400Z,22.54
2017-08-15T00:36:43.565Z,22.51
2017-08-15T00:37:09.718Z,22.51
2017-08-15T00:37:35.864Z,22.5
2017-08-15T00:38:01.990Z,22.47
2017-08-15T00:38:28.158Z,22.53
2017-08-15T00:38:54.265Z,22.53
2017-08-15T00:39:20.391Z,22.55
2017-08-15T00:39:46.561Z,22.53
2017-08-15T00:40:12.700Z,22.44
2017-08-15T00:40:38.860Z,22.48
2017-08-15T00:41:05.002Z,22.48
2017-08-15T00:41:31.164Z,22.5
2017-08-15T00:41:57.325Z,22.44
2017-08-15T00:42:23.438Z,22.41
2017-08-15T00:42:49.590Z,22.41
2017-08-15T00:43:15.788Z,22.5
2017-08-15T00:43:41.967Z,22.47
2017-08-15T00:44:08.116Z,22.53
2017-08-15T00:44:34.276Z,22.5
2017-08-15T00:45:00.460Z,22.47
2017-08-15T00:45:26.632Z,22.5
2017-08-15T00:45:52.794Z,22.47
2017-08-15T00:46:18.916Z,22.47
2017-08-15T00:46:45.076Z,22.38
2017-08-15T00:47:11.287Z,22.45
2017-08-15T00:47:37.466Z,22.39
2017-08-15T00:48:03.655Z,22.47
2017-08-15T00:48:29.866Z,22.39
2017-08-15T00:48:56.013Z,22.36
2017-08-15T00:49:22.202Z,22.38
2017-08-15T00:49:48.389Z,22.41
2017-08-15T00:50:14.530Z,22.33
2017-08-15T00:50:40.663Z,22.36
2017-08-15T00:51:06.853Z,22.33
2017-08-15T00:51:32.977Z,22.36
2017-08-15T00:51:59.185Z,22.36
2017-08-15T00:52:25.301Z,22.33
2017-08-15T00:52:51.499Z,22.3
2017-08-15T00:53:17.686Z,22.3
2017-08-15T00:53:43.829Z,22.3
2017-08-15T00:54:10.017Z,22.3
2017-08-15T00:54:36.170Z,22.29
2017-08-15T00:55:02.314Z,22.22
2017-08-15T00:55:28.510Z,22.18
2017-08-15T00:55:54.671Z,22.23
2017-08-15T00:56:20.815Z,22.23
2017-08-15T00:56:46.994Z,22.17
2017-08-15T00:57:13.154Z,22.23
2017-08-15T00:57:39.329Z,22.13
2017-08-15T00:58:05.449Z,22.11
2017-08-15T00:58:31.582Z,22.07
2017-08-15T00:58:57.759Z,22.13
2017-08-15T00:59:23.878Z,22.18
2017-08-15T00:59:50.107Z,22.15
2017-08-15T01:00:16.296Z,22.07
2017-08-15T01:00:42.501Z,22.06
2017-08-15T01:01:08.661Z,22.08
2017-08-15T01:01:34.847Z,21.99
2017-08-15T01:02:00.964Z,22.1
2017-08-15T01:02:27.156Z,22.11
2017-08-15T01:02:53.269Z,22.08
2017-08-15T01:03:19.471Z,22.11
2017-08-15T01:03:45.621Z,22.11
2017-08-15T01:04:11.735Z,22.17
2017-08-15T01:04:37.866Z,22.22
2017-08-15T01:05:04.054Z,22.11
2017-08-15T01:05:30.194Z,22.25
2017-08-15T01:05:56.354Z,22.18
2017-08-15T01:06:22.482Z,22.25
2017-08-15T01:06:48.624Z,22.22
2017-08-15T01:07:14.774Z,22.17
2017-08-15T01:07:40.935Z,22.2
2017-08-15T01:08:07.110Z,22.14
2017-08-15T01:08:33.269Z,22.2
2017-08-15T01:08:59.414Z,22.22
2017-08-15T01:09:25.632Z,22.15
2017-08-15T01:09:51.764Z,22.11
2017-08-15T01:10:17.959Z,22.13
2017-08-15T01:10:44.115Z,22.1
2017-08-15T01:11:10.275Z,22.11
2017-08-15T01:11:36.423Z,22.13
2017-08-15T01:12:02.541Z,22.04
2017-08-15T01:12:28.771Z,21.98
2017-08-15T01:12:54.890Z,22
2017-08-15T01:13:21.090Z,21.95
2017-08-15T01:13:47.214Z,22.06
2017-08-15T01:14:13.403Z,21.99
2017-08-15T01:14:39.595Z,22.1
2017-08-15T01:15:05.708Z,22.1
2017-08-15T01:15:31.884Z,22.11
2017-08-15T01:15:58.046Z,22.04
2017-08-15T01:16:24.230Z,22.1
2017-08-15T01:16:50.374Z,22.07
2017-08-15T01:17:16.576Z,22.13
2017-08-15T01:17:42.727Z,22.15
2017-08-15T01:18:08.873Z,22.14
2017-08-15T01:18:35.035Z,22
2017-08-15T01:19:01.224Z,22.1
2017-08-15T01:19:27.346Z,22.13
2017-08-15T01:19:53.497Z,22.13
2017-08-15T01:20:19.668Z,22.13
2017-08-15T01:20:45.864Z,22.13
2017-08-15T01:21:11.987Z,21.98
2017-08-15T01:21:38.131Z,21.98
2017-08-15T01:22:04.294Z,22
2017-08-15T01:22:30.414Z,21.98
2017-08-15T01:22:56.531Z,22.02
2017-08-15T01:23:22.750Z,22.06
2017-08-15T01:23:48.880Z,22.07
2017-08-15T01:24:15.024Z,22.06
2017-08-15T01:24:41.176Z,22.04
2017-08-15T01:25:07.387Z,22.06
2017-08-15T01:25:33.549Z,21.95
2017-08-15T01:25:59.739Z,22.04
2017-08-15T01:26:25.906Z,22.06
2017-08-15T01:26:52.164Z,21.99
2017-08-15T01:27:18.357Z,22.02
2017-08-15T01:27:44.526Z,21.96
2017-08-15T01:28:10.647Z,21.98
2017-08-15T01:28:36.808Z,21.98
2017-08-15T01:29:02.955Z,21.98
2017-08-15T01:29:29.137Z,22
2017-08-15T01:29:55.329Z,21.93
2017-08-15T01:30:21.447Z,21.95
2017-08-15T01:30:47.603Z,21.99
2017-08-15T01:31:13.744Z,21.98
2017-08-15T01:31:39.905Z,21.93
2017-08-15T01:32:06.070Z,22.04
2017-08-15T01:32:32.221Z,22.06
2017-08-15T01:32:58.372Z,22.06
2017-08-15T01:33:24.503Z,21.99
2017-08-15T01:33:50.713Z,22.02
2017-08-15T01:34:16.860Z,21.98
2017-08-15T01:34:43.053Z,21.92
2017-08-15T01:35:09.207Z,21.91
2017-08-15T01:35:35.354Z,21.92
2017-08-15T01:36:01.486Z,21.95
2017-08-15T01:36:27.605Z,21.96
2017-08-15T01:36:53.766Z,21.99
2017-08-15T01:37:19.912Z,21.92
2017-08-15T01:37:46.025Z,21.88
2017-08-15T01:38:12.193Z,21.85
2017-08-15T01:38:38.314Z,21.83
2017-08-15T01:39:04.462Z,21.85
2017-08-15T01:39:30.620Z,21.8
2017-08-15T01:39:56.806Z,21.91
2017-08-15T01:40:22.971Z,21.83
2017-08-15T01:40:49.165Z,21.92
2017-08-15T01:41:15.329Z,21.93
2017-08-15T01:41:41.465Z,21.89
2017-08-15T01:42:07.654Z,21.96
2017-08-15T01:42:33.787Z,21.98
2017-08-15T01:42:59.929Z,22
2017-08-15T01:43:26.109Z,21.95
2017-08-15T01:43:52.270Z,21.92
2017-08-15T01:44:18.447Z,21.92
2017-08-15T01:44:44.590Z,21.96
2017-08-15T01:45:10.745Z,21.79
2017-08-15T01:45:36.896Z,21.89
2017-08-15T01:46:03.041Z,21.82
2017-08-15T01:46:29.205Z,21.89
2017-08-15T01:46:55.328Z,21.85
2017-08-15T01:47:21.506Z,21.82
2017-08-15T01:47:47.659Z,21.82
2017-08-15T01:48:13.830Z,21.77
2017-08-15T01:48:39.994Z,21.88
2017-08-15T01:49:06.142Z,21.8
2017-08-15T01:49:32.344Z,21.8
2017-08-15T01:49:58.510Z,21.8
2017-08-15T01:50:24.730Z,21.72
2017-08-15T01:50:50.875Z,21.6
2017-08-15T01:51:17.095Z,21.77
2017-08-15T01:51:43.292Z,21.79
2017-08-15T01:52:09.432Z,21.69
2017-08-15T01:52:35.585Z,21.7
2017-08-15T01:53:01.734Z,21.73
2017-08-15T01:53:27.893Z,21.77
2017-08-15T01:53:54.015Z,21.7
2017-08-15T01:54:20.165Z,21.57
2017-08-15T01:54:46.322Z,21.57
2017-08-15T01:55:12.550Z,21.52
2017-08-15T01:55:38.720Z,21.61
2017-08-15T01:56:04.846Z,21.54
2017-08-15T01:56:31.009Z,21.58
2017-08-15T01:56:57.148Z,21.5
2017-08-15T01:57:23.298Z,21.55
2017-08-15T01:57:49.461Z,21.55
2017-08-15T01:58:15.610Z,21.57
2017-08-15T01:58:41.806Z,21.58
2017-08-15T01:59:08.005Z,21.62
2017-08-15T01:59:34.189Z,21.58
2017-08-15T02:00:00.423Z,21.76
2017-08-15T02:00:26.564Z,21.7
2017-08-15T02:00:52.775Z,21.72
2017-08-15T02:01:18.996Z,21.7
2017-08-15T02:01:45.182Z,21.75
2017-08-15T02:02:11.296Z,21.67
2017-08-15T02:02:37.487Z,21.73
2017-08-15T02:03:03.640Z,21.73
2017-08-15T02:03:29.841Z,21.66
2017-08-15T02:03:56.013Z,21.73
2017-08-15T02:04:22.167Z,21.73
2017-08-15T02:04:48.339Z,21.73
2017-08-15T02:05:14.494Z,21.67
2017-08-15T02:05:40.659Z,21.73
2017-08-15T02:06:06.887Z,21.64
2017-08-15T02:06:33.083Z,21.6
2017-08-15T02:06:59.204Z,21.64
2017-08-15T02:07:25.377Z,21.7
2017-08-15T02:07:51.494Z,21.75
2017-08-15T02:08:17.625Z,21.76
2017-08-15T02:08:43.767Z,21.67
2017-08-15T02:09:09.912Z,21.73
2017-08-15T02:09:36.067Z,21.61
2017-08-15T02:10:02.254Z,21.62
2017-08-15T02:10:28.387Z,21.73
2017-08-15T02:10:54.499Z,21.6
2017-08-15T02:11:20.712Z,21.66
2017-08-15T02:11:46.910Z,21.72
2017-08-15T02:12:13.128Z,21.58
2017-08-15T02:12:39.273Z,21.57
2017-08-15T02:13:05.471Z,21.58
2017-08-15T02:13:31.690Z,21.58
2017-08-15T02:13:57.835Z,21.48
2017-08-15T02:14:24.026Z,21.52
2017-08-15T02:14:50.152Z,21.48
2017-08-15T02:15:16.301Z,21.48
2017-08-15T02:15:42.450Z,21.4
2017-08-15T02:16:08.622Z,21.32
2017-08-15T02:16:34.814Z,21.42
2017-08-15T02:17:00.936Z,21.29
2017-08-15T02:17:27.108Z,21.32
2017-08-15T02:17:53.273Z,21.32
2017-08-15T02:18:19.426Z,21.35
2017-08-15T02:18:45.568Z,21.27
2017-08-15T02:19:11.726Z,21.22
2017-08-15T02:19:37.923Z,21.27
2017-08-15T02:20:04.059Z,21.32
2017-08-15T02:20:30.209Z,21.33
2017-08-15T02:20:56.358Z,21.29
2017-08-15T02:21:22.521Z,21.27
2017-08-15T02:21:48.681Z,21.39
2017-08-15T02:22:15.006Z,21.36
2017-08-15T02:22:41.215Z,21.48
2017-08-15T02:23:07.408Z,21.39
2017-08-15T02:23:33.572Z,21.42
2017-08-15T02:23:59.691Z,21.37
2017-08-15T02:24:25.853Z,21.42
2017-08-15T02:24:51.978Z,21.46
2017-08-15T02:25:18.131Z,21.36
2017-08-15T02:25:44.273Z,21.39
2017-08-15T02:26:10.449Z,21.42
2017-08-15T02:26:36.671Z,21.43
2017-08-15T02:27:02.811Z,21.39
2017-08-15T02:27:28.956Z,21.4
2017-08-15T02:27:55.111Z,21.32
2017-08-15T02:28:21.250Z,21.27
2017-08-15T02:28:47.371Z,21.32
2017-08-15T02:29:13.493Z,21.33
2017-08-15T02:29:39.698Z,21.32
2017-08-15T02:30:05.861Z,21.3
2017-08-15T02:30:31.992Z,21.39
2017-08-15T02:30:58.135Z,21.42
2017-08-15T02:31:24.243Z,21.39
2017-08-15T02:31:50.428Z,21.36
2017-08-15T02:32:16.575Z,21.37
2017-08-15T02:32:42.794Z,21.32
2017-08-15T02:33:08.961Z,21.35
2017-08-15T02:33:35.128Z,21.4
2017-08-15T02:34:01.344Z,21.32
2017-08-15T02:34:27.495Z,21.32
2017-08-15T02:34:53.626Z,21.33
2017-08-15T02:35:19.812Z,21.3
2017-08-15T02:35:45.929Z,21.29
2017-08-15T02:36:12.100Z,21.3
2017-08-15T02:36:38.286Z,21.35
2017-08-15T02:37:04.412Z,21.27
2017-08-15T02:37:30.550Z,21.3
2017-08-15T02:37:56.728Z,21.32
2017-08-15T02:38:22.891Z,21.18
2017-08-15T02:38:49.013Z,21.22
2017-08-15T02:39:15.194Z,21.21
2017-08-15T02:39:41.304Z,21.29
2017-08-15T02:40:07.489Z,21.22
2017-08-15T02:40:33.671Z,21.21
2017-08-15T02:40:59.778Z,21.22
2017-08-15T02:41:26.007Z,21.25
2017-08-15T02:41:52.135Z,21.18
2017-08-15T02:42:18.302Z,21.21
2017-08-15T02:42:44.474Z,21.2
2017-08-15T02:43:10.642Z,21.21
2017-08-15T02:43:36.767Z,21.25
2017-08-15T02:44:02.954Z,21.25
2017-08-15T02:44:29.061Z,21.21
2017-08-15T02:44:55.212Z,21.22
2017-08-15T02:45:21.455Z,21.22
2017-08-15T02:45:47.628Z,21.09
2017-08-15T02:46:13.773Z,21.12
2017-08-15T02:46:39.925Z,21.17
2017-08-15T02:47:06.067Z,21.15
2017-08-15T02:47:32.235Z,21.18
2017-08-15T02:47:58.392Z,21.22
2017-08-15T02:48:24.543Z,21.24
2017-08-15T02:48:50.725Z,21.21
2017-08-15T02:49:16.862Z,21.2
2017-08-15T02:49:42.982Z,21.3
2017-08-15T02:50:09.169Z,21.24
2017-08-15T02:50:35.315Z,21.22
2017-08-15T02:51:01.424Z,21.22
2017-08-15T02:51:27.556Z,21.09
2017-08-15T02:51:53.729Z,21.14
2017-08-15T02:52:19.860Z,21.17
2017-08-15T02:52:46.049Z,21.12
2017-08-15T02:53:12.206Z,21.12
2017-08-15T02:53:38.315Z,21.05
2017-08-15T02:54:04.488Z,21.21
2017-08-15T02:54:30.626Z,21.2
2017-08-15T02:54:56.785Z,21.15
2017-08-15T02:55:23.000Z,21.07
2017-08-15T02:55:49.134Z,21.06
2017-08-15T02:56:15.264Z,21.05
2017-08-15T02:56:41.445Z,21.14
2017-08-15T02:57:07.612Z,21.15
2017-08-15T02:57:33.798Z,21.22
2017-08-15T02:57:59.957Z,21.14
2017-08-15T02:58:26.061Z,21.03
2017-08-15T02:58:52.205Z,21.09
2017-08-15T02:59:18.362Z,21.14
2017-08-15T02:59:44.501Z,21.14
2017-08-15T03:00:10.684Z,21.18
2017-08-15T03:00:36.797Z,21.14
2017-08-15T03:01:02.947Z,21.09
2017-08-15T03:01:29.136Z,21.09
2017-08-15T03:01:55.242Z,21.09
2017-08-15T03:02:21.418Z,21.15
2017-08-15T03:02:47.546Z,21.12
2017-08-15T03:03:13.687Z,21.18
2017-08-15T03:03:39.805Z,21.15
2017-08-15T03:04:05.986Z,21.14
2017-08-15T03:04:32.101Z,21.07
2017-08-15T03:04:58.266Z,21.25
2017-08-15T03:05:24.473Z,21.18
2017-08-15T03:05:50.594Z,21.22
2017-08-15T03:06:16.748Z,21.25
2017-08-15T03:06:42.885Z,21.22
2017-08-15T03:07:09.033Z,21.24
2017-08-15T03:07:35.218Z,21.15
2017-08-15T03:08:01.329Z,21.14
2017-08-15T03:08:27.465Z,21.17
2017-08-15T03:08:53.590Z,21.14
2017-08-15T03:09:19.707Z,21.15
2017-08-15T03:09:45.845Z,21.07
2017-08-15T03:10:12.033Z,21.07
2017-08-15T03:10:38.184Z,21.14
2017-08-15T03:11:04.295Z,21.11
2017-08-15T03:11:30.448Z,21.09
2017-08-15T03:11:56.600Z,21.11
2017-08-15T03:12:22.765Z,21.06
2017-08-15T03:12:48.939Z,21.14
2017-08-15T03:13:15.123Z,21.18
2017-08-15T03:13:41.264Z,21.12
2017-08-15T03:14:07.437Z,21.18
2017-08-15T03:14:33.591Z,21.18
2017-08-15T03:14:59.729Z,21.09
2017-08-15T03:15:25.897Z,21.12
2017-08-15T03:15:52.022Z,21.06
2017-08-15T03:16:18.141Z,21.12
2017-08-15T03:16:44.320Z,21.17
2017-08-15T03:17:10.496Z,21.07
2017-08-15T03:17:36.612Z,21.17
2017-08-15T03:18:02.773Z,21.02
2017-08-15T03:18:28.975Z,21.07
2017-08-15T03:18:55.137Z,21.17
2017-08-15T03:19:21.264Z,21.09
2017-08-15T03:19:47.416Z,21.02
2017-08-15T03:20:13.553Z,21.2
2017-08-15T03:20:39.710Z,21.03
2017-08-15T03:21:05.923Z,21.11
2017-08-15T03:21:32.093Z,21.07
2017-08-15T03:21:58.281Z,21.12
2017-08-15T03:22:24.445Z,21.12
2017-08-15T03:22:50.609Z,21.11
2017-08-15T03:23:16.782Z,21.14
2017-08-15T03:23:42.920Z,21.12
2017-08-15T03:24:09.067Z,21.06
2017-08-15T03:24:35.249Z,21.06
2017-08-15T03:25:01.412Z,21.06
2017-08-15T03:25:27.593Z,21.05
2017-08-15T03:25:53.778Z,21.03
2017-08-15T03:26:19.942Z,20.95
2017-08-15T03:26:46.087Z,21.02
2017-08-15T03:27:12.243Z,20.95
2017-08-15T03:27:38.387Z,21.02
2017-08-15T03:28:04.538Z,20.99
2017-08-15T03:28:30.675Z,20.97
2017-08-15T03:28:56.892Z,20.99
2017-08-15T03:29:23.078Z,21
2017-08-15T03:29:49.268Z,20.88
2017-08-15T03:30:15.454Z,20.92
2017-08-15T03:30:41.704Z,20.9
2017-08-15T03:31:07.940Z,20.93
2017-08-15T03:31:34.059Z,20.93
2017-08-15T03:32:00.217Z,20.97
2017-08-15T03:32:26.381Z,20.96
2017-08-15T03:32:52.491Z,20.99
2017-08-15T03:33:18.646Z,20.96
2017-08-15T03:33:44.824Z,20.92
2017-08-15T03:34:11.007Z,20.88
2017-08-15T03:34:37.150Z,20.88
2017-08-15T03:35:03.322Z,20.88
2017-08-15T03:35:29.536Z,20.93
2017-08-15T03:35:55.702Z,20.95
2017-08-15T03:36:21.897Z,20.99
2017-08-15T03:36:48.024Z,20.95
2017-08-15T03:37:14.177Z,20.92
2017-08-15T03:37:40.339Z,20.97
2017-08-15T03:38:06.496Z,20.96
2017-08-15T03:38:32.676Z,21.05
2017-08-15T03:38:58.853Z,21.11
2017-08-15T03:39:24.994Z,21.03
2017-08-15T03:39:51.106Z,20.93
2017-08-15T03:40:17.295Z,20.93
2017-08-15T03:40:43.446Z,20.96
2017-08-15T03:41:09.616Z,20.96
2017-08-15T03:41:35.713Z,20.93
2017-08-15T03:42:01.864Z,20.96
2017-08-15T03:42:28.034Z,20.99
2017-08-15T03:42:54.215Z,20.99
2017-08-15T03:43:20.370Z,20.92
2017-08-15T03:43:46.570Z,20.9
2017-08-15T03:44:12.718Z,20.88
2017-08-15T03:44:38.830Z,20.92
2017-08-15T03:45:04.982Z,20.93
2017-08-15T03:45:31.105Z,21
2017-08-15T03:45:57.213Z,20.99
2017-08-15T03:46:23.336Z,20.9
2017-08-15T03:46:49.490Z,20.96
2017-08-15T03:47:15.599Z,20.92
2017-08-15T03:47:41.800Z,20.99
2017-08-15T03:48:07.984Z,20.96
2017-08-15T03:48:34.159Z,20.96
2017-08-15T03:49:00.328Z,20.96
2017-08-15T03:49:26.486Z,20.96
2017-08-15T03:49:52.657Z,21.12
2017-08-15T03:50:18.815Z,21.12
2017-08-15T03:50:45.033Z,21.14
2017-08-15T03:51:11.182Z,20.96
2017-08-15T03:51:37.332Z,20.96
2017-08-15T03:52:03.472Z,20.97
2017-08-15T03:52:29.588Z,20.99
2017-08-15T03:52:55.751Z,21.06
2017-08-15T03:53:21.922Z,20.93
2017-08-15T03:53:48.032Z,20.96
2017-08-15T03:54:14.219Z,20.93
2017-08-15T03:54:40.370Z,20.97
2017-08-15T03:55:06.487Z,20.88
2017-08-15T03:55:32.637Z,20.92
2017-08-15T03:55:58.822Z,20.99
2017-08-15T03:56:24.933Z,20.99
2017-08-15T03:56:51.074Z,20.97
2017-08-15T03:57:17.259Z,21
2017-08-15T03:57:43.454Z,20.96
2017-08-15T03:58:09.630Z,20.95
2017-08-15T03:58:35.781Z,20.93
2017-08-15T03:59:01.954Z,20.97
2017-08-15T03:59:28.099Z,20.96
2017-08-15T03:59:54.258Z,20.99
2017-08-15T04:00:20.431Z,20.97
2017-08-15T04:00:46.633Z,20.96
2017-08-15T04:01:12.779Z,20.93
2017-08-15T04:01:38.932Z,20.95
2017-08-15T04:02:05.058Z,20.95
2017-08-15T04:02:31.200Z,20.88
2017-08-15T04:02:57.345Z,20.88
2017-08-15T04:03:23.534Z,20.9
2017-08-15T04:03:49.707Z,20.9
2017-08-15T04:04:15.867Z,20.9
2017-08-15T04:04:42.059Z,20.81
2017-08-15T04:05:08.173Z,20.87
2017-08-15T04:05:34.368Z,20.82
2017-08-15T04:06:00.493Z,20.85
2017-08-15T04:06:26.644Z,20.87
2017-08-15T04:06:52.818Z,20.95
2017-08-15T04:07:18.933Z,20.96
2017-08-15T04:07:45.072Z,20.9
2017-08-15T04:08:11.231Z,20.92
2017-08-15T04:08:37.377Z,20.95
2017-08-15T04:09:03.516Z,20.9
2017-08-15T04:09:29.673Z,20.93
2017-08-15T04:09:55.851Z,20.96
2017-08-15T04:10:21.984Z,20.92
2017-08-15T04:10:48.192Z,20.97
2017-08-15T04:11:14.351Z,20.92
2017-08-15T04:11:40.484Z,20.96
2017-08-15T04:12:06.635Z,20.95
2017-08-15T04:12:32.835Z,20.9
2017-08-15T04:12:59.050Z,20.96
2017-08-15T04:13:25.198Z,20.97
2017-08-15T04:13:51.308Z,20.93
2017-08-15T04:14:17.458Z,21
2017-08-15T04:14:43.679Z,20.9
2017-08-15T04:15:09.842Z,21.02
2017-08-15T04:15:36.055Z,20.95
2017-08-15T04:16:02.211Z,20.93
2017-08-15T04:16:28.320Z,20.95
2017-08-15T04:16:54.466Z,20.95
2017-08-15T04:17:20.625Z,20.97
2017-08-15T04:17:46.768Z,20.97
2017-08-15T04:18:12.890Z,20.95
2017-08-15T04:18:38.995Z,20.85
2017-08-15T04:19:05.146Z,20.74
2017-08-15T04:19:31.273Z,20.74
2017-08-15T04:19:57.468Z,20.8
2017-08-15T04:20:23.612Z,20.67
2017-08-15T04:20:49.742Z,20.56
2017-08-15T04:21:15.909Z,20.59
2017-08-15T04:21:42.045Z,20.63
2017-08-15T04:22:08.204Z,20.6
2017-08-15T04:22:34.415Z,20.66
2017-08-15T04:23:00.585Z,20.58
2017-08-15T04:23:26.743Z,20.58
2017-08-15T04:23:52.877Z,20.59
2017-08-15T04:24:19.069Z,20.59
2017-08-15T04:24:45.243Z,20.59
2017-08-15T04:25:11.408Z,20.67
2017-08-15T04:25:37.569Z,20.66
2017-08-15T04:26:03.712Z,20.66
2017-08-15T04:26:29.881Z,20.55
2017-08-15T04:26:56.062Z,20.65
2017-08-15T04:27:22.252Z,20.59
2017-08-15T04:27:48.387Z,20.62
2017-08-15T04:28:14.511Z,20.56
2017-08-15T04:28:40.667Z,20.55
2017-08-15T04:29:06.837Z,20.59
2017-08-15T04:29:33.013Z,20.47
2017-08-15T04:29:59.149Z,20.47
2017-08-15T04:30:25.340Z,20.44
2017-08-15T04:30:51.493Z,20.39
2017-08-15T04:31:17.600Z,20.4
2017-08-15T04:31:43.747Z,20.39
2017-08-15T04:32:09.904Z,20.47
2017-08-15T04:32:36.010Z,20.43
2017-08-15T04:33:02.172Z,20.5
2017-08-15T04:33:28.348Z,20.47
2017-08-15T04:33:54.511Z,20.44
2017-08-15T04:34:20.656Z,20.4
2017-08-15T04:34:46.834Z,20.4
2017-08-15T04:35:13.015Z,20.48
2017-08-15T04:35:39.200Z,20.37
2017-08-15T04:36:05.364Z,20.44
2017-08-15T04:36:31.570Z,20.47
2017-08-15T04:36:57.729Z,20.4
2017-08-15T04:37:23.900Z,20.5
2017-08-15T04:37:50.044Z,20.47
2017-08-15T04:38:16.173Z,20.5
2017-08-15T04:38:42.319Z,20.5
2017-08-15T04:39:08.429Z,20.59
2017-08-15T04:39:34.623Z,20.58
2017-08-15T04:40:00.794Z,20.6
2017-08-15T04:40:27.018Z,20.52
2017-08-15T04:40:53.202Z,20.6
2017-08-15T04:41:19.409Z,20.66
2017-08-15T04:41:45.578Z,20.58
2017-08-15T04:42:11.726Z,20.62
2017-08-15T04:42:37.952Z,20.43
2017-08-15T04:43:04.088Z,20.52
2017-08-15T04:43:30.237Z,20.48
2017-08-15T04:43:56.364Z,20.59
2017-08-15T04:44:22.531Z,20.5
2017-08-15T04:44:48.676Z,20.62
2017-08-15T04:45:14.842Z,20.65
2017-08-15T04:45:40.980Z,20.62
2017-08-15T04:46:07.106Z,20.59
2017-08-15T04:46:33.272Z,20.58
2017-08-15T04:46:59.390Z,20.6
2017-08-15T04:47:25.628Z,20.5
2017-08-15T04:47:52.182Z,20.56
2017-08-15T04:48:18.326Z,20.41
2017-08-15T04:48:44.478Z,20.43
2017-08-15T04:49:10.618Z,20.44
2017-08-15T04:49:36.755Z,20.47
2017-08-15T04:50:02.917Z,20.41
2017-08-15T04:50:29.058Z,20.5
2017-08-15T04:50:55.222Z,20.41
2017-08-15T04:51:21.430Z,20.5
2017-08-15T04:51:47.574Z,20.52
2017-08-15T04:52:13.726Z,20.4
2017-08-15T04:52:39.896Z,20.48
2017-08-15T04:53:06.038Z,20.4
2017-08-15T04:53:32.254Z,20.4
2017-08-15T04:53:58.404Z,20.37
2017-08-15T04:54:24.538Z,20.4
2017-08-15T04:54:50.664Z,20.39
2017-08-15T04:55:16.922Z,20.4
2017-08-15T04:55:43.069Z,20.4
2017-08-15T04:56:09.219Z,20.41
2017-08-15T04:56:35.374Z,20.47
2017-08-15T04:57:01.543Z,20.39
2017-08-15T04:57:27.719Z,20.36
2017-08-15T04:57:53.882Z,20.4
2017-08-15T04:58:20.121Z,20.41
2017-08-15T04:58:46.302Z,20.44
2017-08-15T04:59:12.415Z,20.34
2017-08-15T04:59:38.543Z,20.47
2017-08-15T05:00:04.696Z,20.43
2017-08-15T05:00:30.806Z,20.44
2017-08-15T05:00:56.981Z,20.36
2017-08-15T05:01:23.202Z,20.44
2017-08-15T05:01:49.310Z,20.44
2017-08-15T05:02:15.538Z,20.44
2017-08-15T05:02:41.652Z,20.4
2017-08-15T05:03:07.841Z,20.47
2017-08-15T05:03:34.030Z,20.4
2017-08-15T05:04:00.220Z,20.4
2017-08-15T05:04:26.369Z,20.44
2017-08-15T05:04:52.524Z,20.5
2017-08-15T05:05:18.758Z,20.63
2017-08-15T05:05:44.929Z,20.6
2017-08-15T05:06:11.054Z,20.63
2017-08-15T05:06:37.199Z,20.65
2017-08-15T05:07:03.342Z,20.59
2017-08-15T05:07:29.563Z,20.59
2017-08-15T05:07:55.714Z,20.59
2017-08-15T05:08:21.920Z,20.65
2017-08-15T05:08:48.032Z,20.69
2017-08-15T05:09:14.230Z,20.69
2017-08-15T05:09:40.390Z,20.77
2017-08-15T05:10:06.562Z,20.72
2017-08-15T05:10:32.734Z,20.82
2017-08-15T05:10:58.892Z,20.84
2017-08-15T05:11:25.044Z,20.88
2017-08-15T05:11:51.180Z,20.95
2017-08-15T05:12:17.361Z,20.96
2017-08-15T05:12:43.541Z,20.96
2017-08-15T05:13:09.709Z,20.95
2017-08-15T05:13:35.891Z,20.9
2017-08-15T05:14:01.999Z,20.88
2017-08-15T05:14:28.163Z,20.87
2017-08-15T05:14:54.309Z,20.88
2017-08-15T05:15:20.476Z,20.93
2017-08-15T05:15:46.653Z,20.9
2017-08-15T05:16:12.838Z,20.9
2017-08-15T05:16:38.977Z,20.88
2017-08-15T05:17:05.101Z,20.87
2017-08-15T05:17:31.287Z,20.9
2017-08-15T05:17:57.424Z,20.87
2017-08-15T05:18:23.597Z,20.9
2017-08-15T05:18:49.847Z,20.9
2017-08-15T05:19:15.958Z,20.9
2017-08-15T05:19:42.080Z,20.9
2017-08-15T05:20:08.187Z,20.9
2017-08-15T05:20:34.341Z,20.9
2017-08-15T05:21:00.594Z,20.95
2017-08-15T05:21:26.699Z,20.9
2017-08-15T05:21:52.846Z,20.9
2017-08-15T05:22:19.032Z,20.95
2017-08-15T05:22:45.199Z,20.93
2017-08-15T05:23:11.343Z,20.93
2017-08-15T05:23:37.566Z,20.96
2017-08-15T05:24:03.706Z,21.07
2017-08-15T05:24:29.876Z,21.03
2017-08-15T05:24:56.070Z,21.06
2017-08-15T05:25:22.186Z,20.99
2017-08-15T05:25:48.321Z,20.99
2017-08-15T05:26:14.452Z,20.96
2017-08-15T05:26:40.661Z,20.96
2017-08-15T05:27:06.824Z,21.05
2017-08-15T05:27:33.005Z,21.09
2017-08-15T05:27:59.131Z,21.17
2017-08-15T05:28:25.293Z,21.03
2017-08-15T05:28:51.443Z,21.09
2017-08-15T05:29:17.638Z,21.11
2017-08-15T05:29:43.770Z,21.12
2017-08-15T05:30:09.882Z,21.2
2017-08-15T05:30:36.001Z,21.11
2017-08-15T05:31:02.181Z,21.05
2017-08-15T05:31:28.399Z,21.14
2017-08-15T05:31:54.531Z,21.02
2017-08-15T05:32:20.681Z,21.17
2017-08-15T05:32:46.841Z,21.09
2017-08-15T05:33:12.950Z,21.09
2017-08-15T05:33:39.065Z,21.09
2017-08-15T05:34:05.224Z,21.11
2017-08-15T05:34:31.366Z,21.21
2017-08-15T05:34:57.475Z,21.25
2017-08-15T05:35:23.609Z,21.17
2017-08-15T05:35:49.787Z,21.27
2017-08-15T05:36:16.030Z,21.27
2017-08-15T05:36:42.173Z,21.25
2017-08-15T05:37:08.377Z,21.17
2017-08-15T05:37:34.574Z,21.2
2017-08-15T05:38:00.690Z,21.21
2017-08-15T05:38:26.826Z,21.15
2017-08-15T05:38:52.982Z,21.24